Weather History for Monument Pass, CO

Change the Weather History Date:

Monday, October 29, 2012

  Actual Average (KAPA) Record (KAPA)
Temperature  
Mean Temperature 46 °F -  
Max Temperature 60 °F 54 °F 81 °F (2003)
Min Temperature 33 °F 29 °F 17 °F (2002)
Degree Days  
Heating Degree Days 18    
Moisture  
Dew Point 28 °F    
Average Humidity 52    
Maximum Humidity 75    
Minimum Humidity 23    
Precipitation  
Precipitation 0.00 in - - ()
Sea Level Pressure  
Sea Level Pressure 30.19 in    
Wind  
Wind Speed 8 mph (SW)    
Max Wind Speed 12 mph    
Max Gust Speed -    
Visibility 10 miles    
Events      
Averages and records for this station are not official NWS values.
T = Trace of Precipitation, MM = Missing Value Source: NWS Daily Summary

Daily Weather History Graph

Daily Weather History Graph

Search for Another Location

Airport:

Trip Planner

Search our weather history database for the weather conditions in past years. The results will help you decide how hot, cold, wet, or windy it might be!

Date:

Astronomy

Oct. 29, 2012 Rise Set
Actual Time 7:23 AM MDT 6:00 PM MDT
Civil Twilight 6:55 AM MDT 6:27 PM MDT
Nautical Twilight 6:24 AM MDT 6:59 PM MDT
Astronomical Twilight 5:53 AM MDT 7:30 PM MDT
Moon 5:54 PM MDT (10/29) 7:16 AM MDT (10/29)
Length of Visible Light 11h 31m
Length of Day
10h 36m
Full, 100% of the Moon is Illuminated
Oct 29
Full
Oct 29
Full
Nov 6
Last Quarter
Nov 13
New
Nov 20
First Quarter

Hourly Weather History & Observations

Time (MDT) Temp. Windchill Dew Point Humidity Pressure Visibility Wind Dir Wind Speed Gust Speed Precip Events Conditions
12:11 AM 37.4 °F 31.4 °F 26.6 °F 65% 30.16 in 10.0 mi SSW 8.1 mph - N/A   Clear
12:31 AM 35.6 °F 28.0 °F 26.6 °F 70% 30.17 in 10.0 mi SSW 10.4 mph - N/A   Clear
12:51 AM 35.6 °F 28.0 °F 26.6 °F 70% 30.17 in 10.0 mi SSW 10.4 mph - N/A   Clear
1:11 AM 35.6 °F 28.6 °F 26.6 °F 70% 30.17 in 10.0 mi SSW 9.2 mph - N/A   Clear
1:31 AM 35.6 °F 29.9 °F 24.8 °F 65% 30.17 in 10.0 mi SSW 6.9 mph - N/A   Clear
1:51 AM 35.6 °F 29.9 °F 24.8 °F 65% 30.16 in 10.0 mi SSW 6.9 mph - N/A   Clear
2:10 AM 35.6 °F 29.2 °F 26.6 °F 70% 30.17 in 10.0 mi SSW 8.1 mph - N/A   Clear
2:31 AM 33.8 °F 27.7 °F 24.8 °F 70% 30.17 in 10.0 mi SSW 6.9 mph - N/A   Clear
2:51 AM 41.0 °F 34.3 °F 23.0 °F 49% 30.17 in 10.0 mi SW 11.5 mph - N/A   Clear
3:10 AM 41.0 °F 34.7 °F 23.0 °F 49% 30.17 in 10.0 mi SW 10.4 mph - N/A   Clear
3:30 AM 37.4 °F 29.8 °F 23.0 °F 56% 30.17 in 10.0 mi SW 11.5 mph - N/A   Clear
3:51 AM 37.4 °F 30.8 °F 23.0 °F 56% 30.17 in 10.0 mi SSW 9.2 mph - N/A   Clear
4:11 AM 37.4 °F 30.3 °F 23.0 °F 56% 30.18 in 10.0 mi SW 10.4 mph - N/A   Clear
5:11 AM 33.8 °F 27.0 °F 26.6 °F 75% 30.18 in 10.0 mi SSW 8.1 mph - N/A   Clear
5:30 AM 37.4 °F 32.1 °F 26.6 °F 65% 30.18 in 10.0 mi SSW 6.9 mph - N/A   Clear
5:51 AM 37.4 °F 31.4 °F 26.6 °F 65% 30.18 in 10.0 mi SSW 8.1 mph - N/A   Clear
6:11 AM 41.0 °F 35.8 °F 26.6 °F 57% 30.18 in 10.0 mi SW 8.1 mph - N/A   Clear
6:31 AM 41.0 °F 35.2 °F 26.6 °F 57% 30.19 in 10.0 mi SW 9.2 mph - N/A   Clear
6:51 AM 42.8 °F 38.0 °F 26.6 °F 53% 30.19 in 10.0 mi SW 8.1 mph - N/A   Clear
7:11 AM 42.8 °F 37.0 °F 26.6 °F 53% 30.19 in 10.0 mi WSW 10.4 mph - N/A   Clear
7:31 AM 41.0 °F 35.2 °F 26.6 °F 57% 30.19 in 10.0 mi SW 9.2 mph - N/A   Clear
7:51 AM 41.0 °F 35.8 °F 26.6 °F 57% 30.20 in 10.0 mi SW 8.1 mph - N/A   Clear
8:11 AM 42.8 °F 38.6 °F 26.6 °F 53% 30.21 in 10.0 mi SW 6.9 mph - N/A   Clear
8:31 AM 42.8 °F 38.0 °F 26.6 °F 53% 30.21 in 10.0 mi SW 8.1 mph - N/A   Clear
8:51 AM 44.6 °F 40.2 °F 28.4 °F 53% 30.21 in 10.0 mi SW 8.1 mph - N/A   Clear
9:11 AM 44.6 °F 40.2 °F 28.4 °F 53% 30.21 in 10.0 mi SW 8.1 mph - N/A   Clear
9:30 AM 46.4 °F 44.3 °F 30.2 °F 53% 30.21 in 10.0 mi SSW 4.6 mph - N/A   Clear
9:50 AM 46.4 °F 44.3 °F 30.2 °F 53% 30.21 in 10.0 mi SSW 4.6 mph - N/A   Clear
10:11 AM 51.8 °F - 28.4 °F 41% 30.21 in 10.0 mi SSW 5.8 mph - N/A   Clear
10:31 AM 53.6 °F - 28.4 °F 38% 30.21 in 10.0 mi WSW 8.1 mph - N/A   Clear
10:51 AM 55.4 °F - 28.4 °F 36% 30.21 in 10.0 mi WSW 5.8 mph - N/A   Clear
11:31 AM 55.4 °F - 26.6 °F 33% 30.22 in 10.0 mi West 4.6 mph - N/A   Clear
11:51 AM 59.0 °F - 26.6 °F 29% 30.21 in 10.0 mi WNW 4.6 mph - N/A   Clear
12:11 PM 59.0 °F - 26.6 °F 29% 30.21 in 10.0 mi WNW 8.1 mph - N/A   Clear
12:31 PM 59.0 °F - 24.8 °F 27% 30.21 in 10.0 mi WNW 6.9 mph - N/A   Clear
12:51 PM 59.0 °F - 24.8 °F 27% 30.20 in 10.0 mi NNW 9.2 mph - N/A   Clear
1:11 PM 60.8 °F - 23.0 °F 23% 30.19 in 10.0 mi NNW 8.1 mph - N/A   Clear
1:31 PM 59.0 °F - 26.6 °F 29% 30.19 in 10.0 mi NNW 9.2 mph - N/A   Clear
2:30 PM 59.0 °F - 26.6 °F 29% 30.17 in 10.0 mi NW 9.2 mph - N/A   Clear
2:51 PM 59.0 °F - 26.6 °F 29% 30.18 in 10.0 mi NNW 9.2 mph - N/A   Clear
3:11 PM 59.0 °F - 26.6 °F 29% 30.17 in 10.0 mi North 5.8 mph - N/A   Clear
3:31 PM 59.0 °F - 26.6 °F 29% 30.18 in 10.0 mi NNW 8.1 mph - N/A   Clear
3:51 PM 57.2 °F - 28.4 °F 33% 30.17 in 10.0 mi NNW 5.8 mph - N/A   Clear
4:11 PM 55.4 °F - 28.4 °F 36% 30.17 in 10.0 mi North 4.6 mph - N/A   Clear
4:31 PM 55.4 °F - 30.2 °F 38% 30.17 in 10.0 mi North 3.5 mph - N/A   Clear
4:51 PM 53.6 °F - 32.0 °F 44% 30.17 in 10.0 mi North 3.5 mph - N/A   Clear
5:11 PM 53.6 °F - 32.0 °F 44% 30.18 in 10.0 mi North 3.5 mph - N/A   Clear
5:31 PM 53.6 °F - 32.0 °F 44% 30.17 in 10.0 mi Calm Calm - N/A   Clear
5:50 PM 50.0 °F - 33.8 °F 54% 30.18 in 10.0 mi Calm Calm - N/A   Clear
6:11 PM 50.0 °F - 32.0 °F 50% 30.19 in 10.0 mi East 4.6 mph - N/A   Clear
6:30 PM 50.0 °F - 32.0 °F 50% 30.19 in 10.0 mi Calm Calm - N/A   Clear
6:51 PM 46.4 °F 45.2 °F 32.0 °F 57% 30.20 in 10.0 mi SE 3.5 mph - N/A   Clear
7:11 PM 44.6 °F 40.7 °F 32.0 °F 61% 30.20 in 10.0 mi South 6.9 mph - N/A   Clear
7:30 PM 42.8 °F 41.1 °F 32.0 °F 66% 30.21 in 10.0 mi South 3.5 mph - N/A   Clear
7:50 PM 41.0 °F 37.1 °F 32.0 °F 70% 30.21 in 10.0 mi South 5.8 mph - N/A   Clear
8:11 PM 41.0 °F 36.4 °F 32.0 °F 70% 30.21 in 10.0 mi SSW 6.9 mph - N/A   Clear
8:30 PM 39.2 °F 33.6 °F 32.0 °F 75% 30.21 in 10.0 mi SSW 8.1 mph - N/A   Clear
9:11 PM 37.4 °F 31.4 °F 30.2 °F 75% 30.21 in 10.0 mi South 8.1 mph - N/A   Clear
9:31 PM 41.0 °F 35.8 °F 28.4 °F 61% 30.21 in 10.0 mi SSW 8.1 mph - N/A   Clear
9:50 PM 37.4 °F 31.4 °F 28.4 °F 70% 30.21 in 10.0 mi SSW 8.1 mph - N/A   Clear
10:11 PM 41.0 °F 35.8 °F 26.6 °F 57% 30.21 in 10.0 mi SSW 8.1 mph - N/A   Clear
10:31 PM 37.4 °F 31.4 °F 26.6 °F 65% 30.21 in 10.0 mi SSW 8.1 mph - N/A   Clear
10:51 PM 41.0 °F 35.2 °F 26.6 °F 57% 30.20 in 10.0 mi SSW 9.2 mph - N/A   Clear
11:11 PM 37.4 °F 31.4 °F 26.6 °F 65% 30.21 in 10.0 mi SSW 8.1 mph - N/A   Clear
11:31 PM 41.0 °F 34.3 °F 26.6 °F 57% 30.20 in 10.0 mi SW 11.5 mph - N/A   Clear
11:51 PM 42.8 °F 37.5 °F 26.6 °F 53% 30.21 in 10.0 mi SW 9.2 mph - N/A   Clear